sensor_id;sensor_type;location;lat;lon;timestamp;pressure;altitude;pressure_sealevel;temperature;humidity
50632;BME280;49583;45.590;-122.498;2023-03-21T00:00:02;100522.39;;;9.17;70.64
50632;BME280;49583;45.590;-122.498;2023-03-21T00:02:36;100523.55;;;9.16;70.59
50632;BME280;49583;45.590;-122.498;2023-03-21T00:04:49;100525.33;;;9.18;70.84
50632;BME280;49583;45.590;-122.498;2023-03-21T00:07:06;100524.11;;;9.17;70.71
50632;BME280;49583;45.590;-122.498;2023-03-21T00:09:19;100530.93;;;9.15;70.70
50632;BME280;49583;45.590;-122.498;2023-03-21T00:11:32;100527.85;;;9.13;71.01
50632;BME280;49583;45.590;-122.498;2023-03-21T00:13:45;100530.82;;;9.13;70.85
50632;BME280;49583;45.590;-122.498;2023-03-21T00:15:58;100531.99;;;9.14;71.00
50632;BME280;49583;45.590;-122.498;2023-03-21T00:18:25;100534.80;;;9.14;71.27
50632;BME280;49583;45.590;-122.498;2023-03-21T00:20:38;100536.50;;;9.16;70.97
50632;BME280;49583;45.590;-122.498;2023-03-21T00:22:51;100536.73;;;9.19;71.12
50632;BME280;49583;45.590;-122.498;2023-03-21T00:25:04;100534.93;;;9.19;71.02
50632;BME280;49583;45.590;-122.498;2023-03-21T00:27:17;100534.59;;;9.17;71.16
50632;BME280;49583;45.590;-122.498;2023-03-21T00:29:51;100534.11;;;9.17;71.03
50632;BME280;49583;45.590;-122.498;2023-03-21T00:32:04;100537.37;;;9.17;71.03
50632;BME280;49583;45.590;-122.498;2023-03-21T00:34:17;100534.52;;;9.15;71.22
50632;BME280;49583;45.590;-122.498;2023-03-21T00:36:50;100535.58;;;9.13;70.96
50632;BME280;49583;45.590;-122.498;2023-03-21T00:39:03;100540.92;;;9.11;71.05
50632;BME280;49583;45.590;-122.498;2023-03-21T00:41:16;100533.78;;;9.10;70.89
50632;BME280;49583;45.590;-122.498;2023-03-21T00:43:49;100545.83;;;9.08;71.26
50632;BME280;49583;45.590;-122.498;2023-03-21T00:46:05;100535.42;;;9.04;71.00
50632;BME280;49583;45.590;-122.498;2023-03-21T00:48:18;100535.55;;;9.00;71.17
50632;BME280;49583;45.590;-122.498;2023-03-21T00:50:32;100532.92;;;8.98;71.33
50632;BME280;49583;45.590;-122.498;2023-03-21T00:52:46;100532.90;;;8.97;71.25
50632;BME280;49583;45.590;-122.498;2023-03-21T00:55:00;100530.67;;;8.95;71.26
50632;BME280;49583;45.590;-122.498;2023-03-21T00:57:13;100533.39;;;8.95;71.48
50632;BME280;49583;45.590;-122.498;2023-03-21T00:59:29;100533.12;;;8.93;71.36
50632;BME280;49583;45.590;-122.498;2023-03-21T01:01:42;100534.31;;;8.92;71.41
50632;BME280;49583;45.590;-122.498;2023-03-21T01:03:56;100527.97;;;8.91;71.62
50632;BME280;49583;45.590;-122.498;2023-03-21T01:06:13;100531.15;;;8.89;71.50
50632;BME280;49583;45.590;-122.498;2023-03-21T01:08:29;100527.21;;;8.88;71.81
50632;BME280;49583;45.590;-122.498;2023-03-21T01:11:04;100530.73;;;8.87;71.75
50632;BME280;49583;45.590;-122.498;2023-03-21T01:13:18;100532.84;;;8.88;71.92
50632;BME280;49583;45.590;-122.498;2023-03-21T01:15:32;100534.55;;;8.88;71.96
50632;BME280;49583;45.590;-122.498;2023-03-21T01:17:45;100536.21;;;8.86;71.95
50632;BME280;49583;45.590;-122.498;2023-03-21T01:19:58;100537.04;;;8.85;71.74
50632;BME280;49583;45.590;-122.498;2023-03-21T01:22:11;100535.14;;;8.84;71.89
50632;BME280;49583;45.590;-122.498;2023-03-21T01:24:23;100536.39;;;8.84;71.98
50632;BME280;49583;45.590;-122.498;2023-03-21T01:26:36;100535.12;;;8.82;71.71
50632;BME280;49583;45.590;-122.498;2023-03-21T01:28:49;100533.86;;;8.82;72.15
50632;BME280;49583;45.590;-122.498;2023-03-21T01:31:03;100532.30;;;8.82;72.13
50632;BME280;49583;45.590;-122.498;2023-03-21T01:33:18;100539.40;;;8.83;72.10
50632;BME280;49583;45.590;-122.498;2023-03-21T01:35:31;100540.42;;;8.84;72.08
50632;BME280;49583;45.590;-122.498;2023-03-21T01:37:58;100542.36;;;8.82;72.15
50632;BME280;49583;45.590;-122.498;2023-03-21T01:40:18;100544.85;;;8.82;72.12
50632;BME280;49583;45.590;-122.498;2023-03-21T01:42:37;100542.29;;;8.83;72.03
50632;BME280;49583;45.590;-122.498;2023-03-21T01:44:59;100545.05;;;8.84;72.10
50632;BME280;49583;45.590;-122.498;2023-03-21T01:47:23;100543.59;;;8.85;72.15
50632;BME280;49583;45.590;-122.498;2023-03-21T01:49:45;100541.61;;;8.86;72.35
50632;BME280;49583;45.590;-122.498;2023-03-21T01:52:23;100545.16;;;8.88;72.26
50632;BME280;49583;45.590;-122.498;2023-03-21T01:54:53;100548.74;;;8.88;72.29
50632;BME280;49583;45.590;-122.498;2023-03-21T01:57:11;100550.27;;;8.86;72.21
50632;BME280;49583;45.590;-122.498;2023-03-21T01:59:33;100552.23;;;8.84;72.26
50632;BME280;49583;45.590;-122.498;2023-03-21T02:01:47;100554.54;;;8.82;72.50
50632;BME280;49583;45.590;-122.498;2023-03-21T02:04:05;100554.43;;;8.81;72.31
50632;BME280;49583;45.590;-122.498;2023-03-21T02:06:35;100558.62;;;8.80;72.34
50632;BME280;49583;45.590;-122.498;2023-03-21T02:09:04;100558.94;;;8.78;72.59
50632;BME280;49583;45.590;-122.498;2023-03-21T02:11:18;100561.27;;;8.78;72.70
50632;BME280;49583;45.590;-122.498;2023-03-21T02:13:31;100566.41;;;8.77;72.46
50632;BME280;49583;45.590;-122.498;2023-03-21T02:15:50;100570.69;;;8.77;72.62
50632;BME280;49583;45.590;-122.498;2023-03-21T02:18:21;100568.39;;;8.76;72.46
50632;BME280;49583;45.590;-122.498;2023-03-21T02:21:06;100567.36;;;8.75;72.62
50632;BME280;49583;45.590;-122.498;2023-03-21T02:23:47;100571.58;;;8.75;72.55
50632;BME280;49583;45.590;-122.498;2023-03-21T02:26:29;100573.66;;;8.74;72.73
50632;BME280;49583;45.590;-122.498;2023-03-21T02:28:58;100573.56;;;8.73;72.58
50632;BME280;49583;45.590;-122.498;2023-03-21T02:31:37;100576.34;;;8.72;72.56
50632;BME280;49583;45.590;-122.498;2023-03-21T02:34:10;100575.11;;;8.70;72.86
50632;BME280;49583;45.590;-122.498;2023-03-21T02:36:46;100573.95;;;8.68;72.85
50632;BME280;49583;45.590;-122.498;2023-03-21T02:39:05;100582.10;;;8.66;72.73
50632;BME280;49583;45.590;-122.498;2023-03-21T02:41:24;100581.86;;;8.63;72.68
50632;BME280;49583;45.590;-122.498;2023-03-21T02:43:54;100586.69;;;8.61;72.89
50632;BME280;49583;45.590;-122.498;2023-03-21T02:46:15;100589.48;;;8.57;72.89
50632;BME280;49583;45.590;-122.498;2023-03-21T02:48:37;100586.67;;;8.54;72.93
50632;BME280;49583;45.590;-122.498;2023-03-21T02:51:00;100589.17;;;8.51;73.08
50632;BME280;49583;45.590;-122.498;2023-03-21T02:53:18;100594.08;;;8.51;72.89
50632;BME280;49583;45.590;-122.498;2023-03-21T02:55:34;100593.66;;;8.50;72.82
50632;BME280;49583;45.590;-122.498;2023-03-21T02:57:51;100597.98;;;8.48;72.92
50632;BME280;49583;45.590;-122.498;2023-03-21T03:00:08;100600.71;;;8.46;73.18
50632;BME280;49583;45.590;-122.498;2023-03-21T03:02:28;100606.60;;;8.45;72.95
50632;BME280;49583;45.590;-122.498;2023-03-21T03:04:42;100608.36;;;8.44;72.91
50632;BME280;49583;45.590;-122.498;2023-03-21T03:07:09;100606.97;;;8.41;72.72
50632;BME280;49583;45.590;-122.498;2023-03-21T03:09:30;100609.02;;;8.37;72.84
50632;BME280;49583;45.590;-122.498;2023-03-21T03:11:53;100612.29;;;8.34;72.93
50632;BME280;49583;45.590;-122.498;2023-03-21T03:14:31;100620.48;;;8.32;72.97
50632;BME280;49583;45.590;-122.498;2023-03-21T03:17:19;100621.61;;;8.29;72.87
50632;BME280;49583;45.590;-122.498;2023-03-21T03:19:40;100619.41;;;8.25;72.72
50632;BME280;49583;45.590;-122.498;2023-03-21T03:22:02;100620.55;;;8.25;72.67
50632;BME280;49583;45.590;-122.498;2023-03-21T03:24:23;100625.63;;;8.25;72.65
50632;BME280;49583;45.590;-122.498;2023-03-21T03:26:43;100638.20;;;8.25;72.84
50632;BME280;49583;45.590;-122.498;2023-03-21T03:29:03;100633.83;;;8.25;72.61
50632;BME280;49583;45.590;-122.498;2023-03-21T03:31:20;100636.81;;;8.26;72.64
50632;BME280;49583;45.590;-122.498;2023-03-21T03:33:42;100640.65;;;8.26;72.41
50632;BME280;49583;45.590;-122.498;2023-03-21T03:35:58;100641.56;;;8.26;72.55
50632;BME280;49583;45.590;-122.498;2023-03-21T03:38:18;100640.15;;;8.25;72.55
50632;BME280;49583;45.590;-122.498;2023-03-21T03:40:35;100643.40;;;8.25;72.46
50632;BME280;49583;45.590;-122.498;2023-03-21T03:43:06;100649.31;;;8.22;72.30
50632;BME280;49583;45.590;-122.498;2023-03-21T03:45:25;100650.88;;;8.19;72.28
50632;BME280;49583;45.590;-122.498;2023-03-21T03:47:43;100653.52;;;8.15;72.37
50632;BME280;49583;45.590;-122.498;2023-03-21T03:50:15;100652.58;;;8.09;72.51
50632;BME280;49583;45.590;-122.498;2023-03-21T03:52:33;100658.67;;;8.07;72.63
50632;BME280;49583;45.590;-122.498;2023-03-21T03:55:02;100661.73;;;8.04;72.53
50632;BME280;49583;45.590;-122.498;2023-03-21T03:57:18;100663.64;;;8.03;72.63
50632;BME280;49583;45.590;-122.498;2023-03-21T03:59:32;100663.69;;;8.02;72.72
50632;BME280;49583;45.590;-122.498;2023-03-21T04:02:08;100662.34;;;7.99;72.56
50632;BME280;49583;45.590;-122.498;2023-03-21T04:04:21;100663.85;;;7.98;72.69
50632;BME280;49583;45.590;-122.498;2023-03-21T04:06:39;100662.68;;;7.98;72.68
50632;BME280;49583;45.590;-122.498;2023-03-21T04:08:53;100662.08;;;7.96;72.79
50632;BME280;49583;45.590;-122.498;2023-03-21T04:11:11;100663.80;;;7.94;72.87
50632;BME280;49583;45.590;-122.498;2023-03-21T04:13:28;100665.88;;;7.91;72.76
50632;BME280;49583;45.590;-122.498;2023-03-21T04:15:51;100664.05;;;7.90;72.81
50632;BME280;49583;45.590;-122.498;2023-03-21T04:18:04;100668.79;;;7.90;73.01
50632;BME280;49583;45.590;-122.498;2023-03-21T04:20:18;100670.48;;;7.88;72.87
50632;BME280;49583;45.590;-122.498;2023-03-21T04:22:45;100673.05;;;7.86;72.90
50632;BME280;49583;45.590;-122.498;2023-03-21T04:24:58;100674.31;;;7.84;72.78
50632;BME280;49583;45.590;-122.498;2023-03-21T04:27:11;100680.97;;;7.83;72.76
50632;BME280;49583;45.590;-122.498;2023-03-21T04:29:41;100677.87;;;7.81;72.65
50632;BME280;49583;45.590;-122.498;2023-03-21T04:32:21;100673.77;;;7.80;72.73
50632;BME280;49583;45.590;-122.498;2023-03-21T04:34:42;100675.23;;;7.79;72.64
50632;BME280;49583;45.590;-122.498;2023-03-21T04:36:59;100677.16;;;7.78;72.60
50632;BME280;49583;45.590;-122.498;2023-03-21T04:39:22;100676.02;;;7.79;72.71
50632;BME280;49583;45.590;-122.498;2023-03-21T04:41:36;100676.50;;;7.79;72.80
50632;BME280;49583;45.590;-122.498;2023-03-21T04:43:50;100674.45;;;7.81;72.82
50632;BME280;49583;45.590;-122.498;2023-03-21T04:46:03;100683.08;;;7.80;72.69
50632;BME280;49583;45.590;-122.498;2023-03-21T04:52:10;100687.15;;;7.77;72.62
50632;BME280;49583;45.590;-122.498;2023-03-21T04:54:23;100684.33;;;7.76;72.53
50632;BME280;49583;45.590;-122.498;2023-03-21T04:56:38;100683.21;;;7.75;72.59
50632;BME280;49583;45.590;-122.498;2023-03-21T04:58:51;100682.44;;;7.76;72.65
50632;BME280;49583;45.590;-122.498;2023-03-21T05:01:05;100682.15;;;7.76;72.44
50632;BME280;49583;45.590;-122.498;2023-03-21T05:03:18;100682.90;;;7.78;72.47
50632;BME280;49583;45.590;-122.498;2023-03-21T05:05:31;100685.09;;;7.78;72.61
50632;BME280;49583;45.590;-122.498;2023-03-21T05:07:44;100684.06;;;7.77;72.50
50632;BME280;49583;45.590;-122.498;2023-03-21T05:09:57;100685.85;;;7.77;72.37
50632;BME280;49583;45.590;-122.498;2023-03-21T05:12:11;100686.07;;;7.79;72.45
50632;BME280;49583;45.590;-122.498;2023-03-21T05:14:26;100684.42;;;7.81;72.49
50632;BME280;49583;45.590;-122.498;2023-03-21T05:16:40;100685.38;;;7.82;72.36
50632;BME280;49583;45.590;-122.498;2023-03-21T05:18:59;100687.13;;;7.83;72.27
50632;BME280;49583;45.590;-122.498;2023-03-21T05:21:16;100686.47;;;7.84;72.26
50632;BME280;49583;45.590;-122.498;2023-03-21T05:23:30;100692.98;;;7.84;72.09
50632;BME280;49583;45.590;-122.498;2023-03-21T05:25:48;100689.46;;;7.83;72.12
50632;BME280;49583;45.590;-122.498;2023-03-21T05:28:19;100688.84;;;7.81;72.03
50632;BME280;49583;45.590;-122.498;2023-03-21T05:30:32;100692.25;;;7.80;71.96
50632;BME280;49583;45.590;-122.498;2023-03-21T05:32:46;100690.46;;;7.78;71.99
50632;BME280;49583;45.590;-122.498;2023-03-21T05:35:00;100690.16;;;7.78;72.01
50632;BME280;49583;45.590;-122.498;2023-03-21T05:37:14;100690.57;;;7.78;72.09
50632;BME280;49583;45.590;-122.498;2023-03-21T05:39:29;100696.97;;;7.79;72.11
50632;BME280;49583;45.590;-122.498;2023-03-21T05:41:50;100694.58;;;7.77;71.98
50632;BME280;49583;45.590;-122.498;2023-03-21T05:44:03;100693.59;;;7.76;72.01
50632;BME280;49583;45.590;-122.498;2023-03-21T05:46:17;100693.63;;;7.74;71.97
50632;BME280;49583;45.590;-122.498;2023-03-21T05:48:31;100695.95;;;7.73;71.90
50632;BME280;49583;45.590;-122.498;2023-03-21T05:50:54;100697.34;;;7.73;71.84
50632;BME280;49583;45.590;-122.498;2023-03-21T05:53:08;100698.73;;;7.73;72.01
50632;BME280;49583;45.590;-122.498;2023-03-21T05:55:23;100701.71;;;7.71;71.78
50632;BME280;49583;45.590;-122.498;2023-03-21T05:57:38;100703.42;;;7.71;72.01
50632;BME280;49583;45.590;-122.498;2023-03-21T06:00:00;100703.41;;;7.71;71.86
50632;BME280;49583;45.590;-122.498;2023-03-21T06:02:23;100703.42;;;7.71;71.93
50632;BME280;49583;45.590;-122.498;2023-03-21T06:04:36;100706.99;;;7.71;71.96
50632;BME280;49583;45.590;-122.498;2023-03-21T06:06:49;100709.44;;;7.72;71.79
50632;BME280;49583;45.590;-122.498;2023-03-21T06:09:03;100712.89;;;7.72;71.79
50632;BME280;49583;45.590;-122.498;2023-03-21T06:11:22;100711.65;;;7.71;71.60
50632;BME280;49583;45.590;-122.498;2023-03-21T06:13:58;100718.86;;;7.69;71.52
50632;BME280;49583;45.590;-122.498;2023-03-21T06:16:12;100721.77;;;7.69;71.46
50632;BME280;49583;45.590;-122.498;2023-03-21T06:18:25;100722.16;;;7.68;71.45
50632;BME280;49583;45.590;-122.498;2023-03-21T06:20:45;100723.98;;;7.69;71.58
50632;BME280;49583;45.590;-122.498;2023-03-21T06:22:59;100723.11;;;7.71;71.61
50632;BME280;49583;45.590;-122.498;2023-03-21T06:25:12;100723.74;;;7.71;71.73
50632;BME280;49583;45.590;-122.498;2023-03-21T06:27:25;100726.86;;;7.71;71.70
50632;BME280;49583;45.590;-122.498;2023-03-21T06:29:39;100726.91;;;7.72;71.83
50632;BME280;49583;45.590;-122.498;2023-03-21T06:31:52;100728.13;;;7.72;71.68
50632;BME280;49583;45.590;-122.498;2023-03-21T06:34:05;100729.07;;;7.70;71.65
50632;BME280;49583;45.590;-122.498;2023-03-21T06:36:20;100732.54;;;7.69;71.80
50632;BME280;49583;45.590;-122.498;2023-03-21T06:38:33;100732.77;;;7.69;71.73
50632;BME280;49583;45.590;-122.498;2023-03-21T06:40:48;100731.95;;;7.68;71.91
50632;BME280;49583;45.590;-122.498;2023-03-21T06:43:03;100730.52;;;7.67;71.95
50632;BME280;49583;45.590;-122.498;2023-03-21T06:45:17;100727.16;;;7.64;72.00
50632;BME280;49583;45.590;-122.498;2023-03-21T06:47:30;100728.42;;;7.62;72.28
50632;BME280;49583;45.590;-122.498;2023-03-21T06:49:43;100723.02;;;7.59;72.13
50632;BME280;49583;45.590;-122.498;2023-03-21T06:51:57;100728.40;;;7.57;72.28
50632;BME280;49583;45.590;-122.498;2023-03-21T06:54:10;100727.33;;;7.55;72.44
50632;BME280;49583;45.590;-122.498;2023-03-21T06:56:45;100725.36;;;7.53;72.48
50632;BME280;49583;45.590;-122.498;2023-03-21T06:59:04;100729.58;;;7.51;72.58
50632;BME280;49583;45.590;-122.498;2023-03-21T07:01:38;100729.29;;;7.49;72.59
50632;BME280;49583;45.590;-122.498;2023-03-21T07:03:52;100724.40;;;7.47;72.64
50632;BME280;49583;45.590;-122.498;2023-03-21T07:06:09;100727.45;;;7.46;72.76
50632;BME280;49583;45.590;-122.498;2023-03-21T07:08:23;100731.12;;;7.44;72.84
50632;BME280;49583;45.590;-122.498;2023-03-21T07:10:39;100731.02;;;7.43;72.95
50632;BME280;49583;45.590;-122.498;2023-03-21T07:12:54;100726.73;;;7.40;72.97
50632;BME280;49583;45.590;-122.498;2023-03-21T07:15:17;100721.65;;;7.35;72.97
50632;BME280;49583;45.590;-122.498;2023-03-21T07:17:32;100721.64;;;7.32;73.21
50632;BME280;49583;45.590;-122.498;2023-03-21T07:19:45;100724.48;;;7.32;73.20
50632;BME280;49583;45.590;-122.498;2023-03-21T07:21:58;100719.70;;;7.30;73.10
50632;BME280;49583;45.590;-122.498;2023-03-21T07:24:11;100714.10;;;7.26;73.24
50632;BME280;49583;45.590;-122.498;2023-03-21T07:26:24;100716.40;;;7.27;73.18
50632;BME280;49583;45.590;-122.498;2023-03-21T07:28:39;100717.31;;;7.26;73.33
50632;BME280;49583;45.590;-122.498;2023-03-21T07:30:56;100714.02;;;7.26;73.40
50632;BME280;49583;45.590;-122.498;2023-03-21T07:33:10;100713.09;;;7.26;73.44
50632;BME280;49583;45.590;-122.498;2023-03-21T07:35:23;100709.79;;;7.25;73.51
50632;BME280;49583;45.590;-122.498;2023-03-21T07:37:36;100704.25;;;7.25;73.51
50632;BME280;49583;45.590;-122.498;2023-03-21T07:39:49;100701.59;;;7.24;73.40
50632;BME280;49583;45.590;-122.498;2023-03-21T07:42:06;100695.91;;;7.22;73.52
50632;BME280;49583;45.590;-122.498;2023-03-21T07:44:21;100692.88;;;7.20;73.53
50632;BME280;49583;45.590;-122.498;2023-03-21T07:46:44;100692.69;;;7.19;73.65
50632;BME280;49583;45.590;-122.498;2023-03-21T07:48:58;100690.16;;;7.18;73.94
50632;BME280;49583;45.590;-122.498;2023-03-21T07:51:11;100690.97;;;7.17;73.84
50632;BME280;49583;45.590;-122.498;2023-03-21T07:53:24;100686.55;;;7.15;73.97
50632;BME280;49583;45.590;-122.498;2023-03-21T07:55:37;100682.30;;;7.14;74.10
50632;BME280;49583;45.590;-122.498;2023-03-21T07:57:52;100678.06;;;7.13;74.16
50632;BME280;49583;45.590;-122.498;2023-03-21T08:00:06;100674.64;;;7.10;74.32
50632;BME280;49583;45.590;-122.498;2023-03-21T08:02:23;100672.44;;;7.08;74.37
50632;BME280;49583;45.590;-122.498;2023-03-21T08:04:36;100674.36;;;7.05;74.42
50632;BME280;49583;45.590;-122.498;2023-03-21T08:06:50;100674.80;;;7.04;74.64
50632;BME280;49583;45.590;-122.498;2023-03-21T08:09:04;100675.80;;;7.03;74.65
50632;BME280;49583;45.590;-122.498;2023-03-21T08:11:17;100676.55;;;7.03;74.76
50632;BME280;49583;45.590;-122.498;2023-03-21T08:13:30;100674.02;;;7.06;74.75
50632;BME280;49583;45.590;-122.498;2023-03-21T08:15:43;100677.56;;;7.09;74.81
50632;BME280;49583;45.590;-122.498;2023-03-21T08:17:58;100674.05;;;7.11;74.87
50632;BME280;49583;45.590;-122.498;2023-03-21T08:20:14;100674.33;;;7.13;74.99
50632;BME280;49583;45.590;-122.498;2023-03-21T08:22:29;100675.41;;;7.15;74.84
50632;BME280;49583;45.590;-122.498;2023-03-21T08:24:42;100675.69;;;7.16;75.02
50632;BME280;49583;45.590;-122.498;2023-03-21T08:26:56;100674.52;;;7.16;74.99
50632;BME280;49583;45.590;-122.498;2023-03-21T08:29:09;100677.64;;;7.18;75.07
50632;BME280;49583;45.590;-122.498;2023-03-21T08:31:21;100677.80;;;7.18;75.12
50632;BME280;49583;45.590;-122.498;2023-03-21T08:33:34;100678.65;;;7.18;75.13
50632;BME280;49583;45.590;-122.498;2023-03-21T08:35:48;100682.65;;;7.19;75.14
50632;BME280;49583;45.590;-122.498;2023-03-21T08:38:03;100680.02;;;7.19;75.22
50632;BME280;49583;45.590;-122.498;2023-03-21T08:40:18;100682.98;;;7.19;75.34
50632;BME280;49583;45.590;-122.498;2023-03-21T08:42:31;100678.78;;;7.19;75.34
50632;BME280;49583;45.590;-122.498;2023-03-21T08:44:44;100679.45;;;7.19;75.34
50632;BME280;49583;45.590;-122.498;2023-03-21T08:46:57;100676.09;;;7.18;75.46
50632;BME280;49583;45.590;-122.498;2023-03-21T08:49:10;100676.48;;;7.18;75.50
50632;BME280;49583;45.590;-122.498;2023-03-21T08:51:23;100673.08;;;7.19;75.51
50632;BME280;49583;45.590;-122.498;2023-03-21T08:53:36;100677.68;;;7.19;75.57
50632;BME280;49583;45.590;-122.498;2023-03-21T08:55:51;100678.32;;;7.20;75.62
50632;BME280;49583;45.590;-122.498;2023-03-21T08:58:04;100678.62;;;7.19;75.67
50632;BME280;49583;45.590;-122.498;2023-03-21T09:00:20;100678.91;;;7.19;75.72
50632;BME280;49583;45.590;-122.498;2023-03-21T09:02:32;100680.70;;;7.19;75.70
50632;BME280;49583;45.590;-122.498;2023-03-21T09:04:45;100679.02;;;7.20;75.91
50632;BME280;49583;45.590;-122.498;2023-03-21T09:06:59;100678.86;;;7.20;75.81
50632;BME280;49583;45.590;-122.498;2023-03-21T09:09:14;100680.66;;;7.20;75.95
50632;BME280;49583;45.590;-122.498;2023-03-21T09:11:27;100675.05;;;7.20;75.92
50632;BME280;49583;45.590;-122.498;2023-03-21T09:13:40;100674.13;;;7.20;76.08
50632;BME280;49583;45.590;-122.498;2023-03-21T09:15:53;100674.77;;;7.21;75.96
50632;BME280;49583;45.590;-122.498;2023-03-21T09:18:07;100674.54;;;7.21;75.90
50632;BME280;49583;45.590;-122.498;2023-03-21T09:20:26;100673.36;;;7.21;75.87
50632;BME280;49583;45.590;-122.498;2023-03-21T09:22:43;100671.95;;;7.20;75.87
50632;BME280;49583;45.590;-122.498;2023-03-21T09:24:57;100672.98;;;7.18;75.86
50632;BME280;49583;45.590;-122.498;2023-03-21T09:27:11;100672.99;;;7.17;75.85
50632;BME280;49583;45.590;-122.498;2023-03-21T09:29:25;100671.05;;;7.15;75.80
50632;BME280;49583;45.590;-122.498;2023-03-21T09:31:38;100667.19;;;7.13;75.66
50632;BME280;49583;45.590;-122.498;2023-03-21T09:33:53;100666.45;;;7.12;75.76
50632;BME280;49583;45.590;-122.498;2023-03-21T09:36:09;100662.91;;;7.11;75.75
50632;BME280;49583;45.590;-122.498;2023-03-21T09:38:23;100662.79;;;7.10;75.89
50632;BME280;49583;45.590;-122.498;2023-03-21T09:40:58;100658.80;;;7.07;75.77
50632;BME280;49583;45.590;-122.498;2023-03-21T09:43:29;100654.74;;;7.04;75.84
50632;BME280;49583;45.590;-122.498;2023-03-21T09:45:53;100656.15;;;7.00;75.68
50632;BME280;49583;45.590;-122.498;2023-03-21T09:48:16;100649.97;;;6.97;75.60
50632;BME280;49583;45.590;-122.498;2023-03-21T09:50:42;100645.04;;;6.94;75.79
50632;BME280;49583;45.590;-122.498;2023-03-21T09:52:59;100641.34;;;6.91;75.83
50632;BME280;49583;45.590;-122.498;2023-03-21T09:55:19;100640.58;;;6.88;75.64
50632;BME280;49583;45.590;-122.498;2023-03-21T09:57:36;100631.33;;;6.84;75.87
50632;BME280;49583;45.590;-122.498;2023-03-21T09:59:52;100635.11;;;6.84;75.66
50632;BME280;49583;45.590;-122.498;2023-03-21T10:02:23;100634.46;;;6.81;75.94
50632;BME280;49583;45.590;-122.498;2023-03-21T10:04:42;100635.25;;;6.79;75.98
50632;BME280;49583;45.590;-122.498;2023-03-21T10:06:59;100636.45;;;6.78;76.14
50632;BME280;49583;45.590;-122.498;2023-03-21T10:09:17;100636.45;;;6.76;76.04
50632;BME280;49583;45.590;-122.498;2023-03-21T10:11:39;100632.05;;;6.75;76.16
50632;BME280;49583;45.590;-122.498;2023-03-21T10:13:57;100629.59;;;6.73;76.21
50632;BME280;49583;45.590;-122.498;2023-03-21T10:16:15;100627.52;;;6.71;76.32
50632;BME280;49583;45.590;-122.498;2023-03-21T10:18:31;100625.41;;;6.71;76.48
50632;BME280;49583;45.590;-122.498;2023-03-21T10:20:44;100627.90;;;6.71;76.66
50632;BME280;49583;45.590;-122.498;2023-03-21T10:23:00;100624.95;;;6.71;76.65
50632;BME280;49583;45.590;-122.498;2023-03-21T10:25:18;100620.92;;;6.72;76.78
50632;BME280;49583;45.590;-122.498;2023-03-21T10:27:32;100615.52;;;6.72;76.82
50632;BME280;49583;45.590;-122.498;2023-03-21T10:29:47;100613.71;;;6.72;76.95
50632;BME280;49583;45.590;-122.498;2023-03-21T10:32:04;100608.07;;;6.73;77.03
50632;BME280;49583;45.590;-122.498;2023-03-21T10:34:23;100601.86;;;6.73;77.03
50632;BME280;49583;45.590;-122.498;2023-03-21T10:36:40;100601.85;;;6.73;76.96
50632;BME280;49583;45.590;-122.498;2023-03-21T10:38:55;100603.66;;;6.74;77.08
50632;BME280;49583;45.590;-122.498;2023-03-21T10:41:12;100602.44;;;6.74;77.16
50632;BME280;49583;45.590;-122.498;2023-03-21T10:43:36;100599.33;;;6.75;77.16
50632;BME280;49583;45.590;-122.498;2023-03-21T10:45:51;100596.50;;;6.76;77.15
50632;BME280;49583;45.590;-122.498;2023-03-21T10:48:08;100597.49;;;6.76;77.42
50632;BME280;49583;45.590;-122.498;2023-03-21T10:50:21;100600.54;;;6.76;77.38
50632;BME280;49583;45.590;-122.498;2023-03-21T10:52:46;100595.89;;;6.76;77.31
50632;BME280;49583;45.590;-122.498;2023-03-21T10:55:14;100591.91;;;6.76;77.49
50632;BME280;49583;45.590;-122.498;2023-03-21T10:57:29;100592.65;;;6.77;77.47
50632;BME280;49583;45.590;-122.498;2023-03-21T10:59:44;100591.72;;;6.77;77.45
50632;BME280;49583;45.590;-122.498;2023-03-21T11:02:01;100590.61;;;6.77;77.37
50632;BME280;49583;45.590;-122.498;2023-03-21T11:04:17;100585.05;;;6.75;77.46
50632;BME280;49583;45.590;-122.498;2023-03-21T11:06:33;100581.20;;;6.75;77.39
50632;BME280;49583;45.590;-122.498;2023-03-21T11:08:53;100575.35;;;6.74;77.53
50632;BME280;49583;45.590;-122.498;2023-03-21T11:11:09;100571.34;;;6.73;77.46
50632;BME280;49583;45.590;-122.498;2023-03-21T11:13:31;100573.58;;;6.74;77.39
50632;BME280;49583;45.590;-122.498;2023-03-21T11:15:51;100574.41;;;6.74;77.66
50632;BME280;49583;45.590;-122.498;2023-03-21T11:18:16;100579.32;;;6.74;77.59
50632;BME280;49583;45.590;-122.498;2023-03-21T11:20:31;100576.90;;;6.74;77.63
50632;BME280;49583;45.590;-122.498;2023-03-21T11:22:45;100575.38;;;6.72;77.85
50632;BME280;49583;45.590;-122.498;2023-03-21T11:25:03;100577.58;;;6.75;77.85
50632;BME280;49583;45.590;-122.498;2023-03-21T11:27:17;100573.64;;;6.76;77.72
50632;BME280;49583;45.590;-122.498;2023-03-21T11:29:34;100572.33;;;6.76;77.85
50632;BME280;49583;45.590;-122.498;2023-03-21T11:31:50;100570.95;;;6.77;78.06
50632;BME280;49583;45.590;-122.498;2023-03-21T11:34:07;100568.52;;;6.76;78.01
50632;BME280;49583;45.590;-122.498;2023-03-21T11:36:35;100564.80;;;6.77;78.16
50632;BME280;49583;45.590;-122.498;2023-03-21T11:38:56;100563.94;;;6.77;78.16
50632;BME280;49583;45.590;-122.498;2023-03-21T11:41:11;100563.27;;;6.77;78.06
50632;BME280;49583;45.590;-122.498;2023-03-21T11:43:36;100559.92;;;6.77;78.07
50632;BME280;49583;45.590;-122.498;2023-03-21T11:46:04;100557.82;;;6.77;78.02